createdAt,value
2018-07-27T00:00:10.610Z,57.20
2018-07-27T00:02:40.467Z,57.20
2018-07-27T00:05:10.031Z,57.30
2018-07-27T00:07:39.477Z,57.40
2018-07-27T00:10:13.384Z,57.50
2018-07-27T00:12:43.033Z,57.60
2018-07-27T00:15:13.086Z,57.70
2018-07-27T00:17:42.687Z,57.90
2018-07-27T00:20:12.126Z,57.70
2018-07-27T00:22:41.615Z,57.80
2018-07-27T00:25:11.098Z,57.80
2018-07-27T00:27:40.820Z,57.80
2018-07-27T00:30:10.453Z,57.80
2018-07-27T00:32:39.947Z,57.90
2018-07-27T00:35:09.424Z,57.90
2018-07-27T00:37:39.173Z,57.90
2018-07-27T00:40:08.811Z,58.00
2018-07-27T00:42:38.537Z,58.10
2018-07-27T00:45:08.115Z,58.10
2018-07-27T00:47:37.872Z,58.10
2018-07-27T00:50:07.787Z,58.00
2018-07-27T00:52:37.252Z,58.20
2018-07-27T00:55:06.700Z,58.20
2018-07-27T00:57:37.127Z,58.20
2018-07-27T01:00:07.136Z,58.00
2018-07-27T01:02:36.648Z,57.90
2018-07-27T01:05:06.170Z,58.00
2018-07-27T01:07:35.810Z,58.00
2018-07-27T01:10:05.719Z,57.70
2018-07-27T01:12:35.269Z,57.80
2018-07-27T01:15:05.195Z,57.70
2018-07-27T01:17:34.689Z,57.90
2018-07-27T01:20:05.421Z,57.80
2018-07-27T01:22:35.025Z,57.80
2018-07-27T01:25:04.595Z,57.70
2018-07-27T01:27:34.299Z,57.60
2018-07-27T01:30:04.122Z,57.60
2018-07-27T01:32:50.427Z,57.60
2018-07-27T01:35:19.892Z,57.40
2018-07-27T01:37:49.461Z,57.30
2018-07-27T01:40:19.120Z,57.30
2018-07-27T01:42:48.812Z,57.40
2018-07-27T01:45:18.322Z,57.30
2018-07-27T01:47:47.710Z,57.20
2018-07-27T01:50:17.261Z,57.20
2018-07-27T01:52:47.011Z,57.10
2018-07-27T01:55:16.451Z,57.30
2018-07-27T01:57:46.064Z,57.90
2018-07-27T02:00:15.627Z,57.20
2018-07-27T02:02:45.099Z,57.00
2018-07-27T02:05:14.526Z,57.00
2018-07-27T02:07:43.985Z,57.00
2018-07-27T02:10:13.790Z,56.90
2018-07-27T02:12:43.638Z,57.10
2018-07-27T02:15:13.269Z,57.10
2018-07-27T02:17:43.077Z,57.10
2018-07-27T02:20:12.639Z,57.00
2018-07-27T02:22:42.201Z,57.20
2018-07-27T02:25:11.633Z,57.20
2018-07-27T02:27:41.105Z,57.00
2018-07-27T02:30:10.700Z,57.00
2018-07-27T02:32:40.513Z,57.70
2018-07-27T02:35:09.953Z,57.00
2018-07-27T02:37:39.368Z,57.10
2018-07-27T02:40:08.851Z,57.10
2018-07-27T02:42:38.503Z,57.10
2018-07-27T02:45:08.048Z,57.00
2018-07-27T02:47:37.433Z,56.90
2018-07-27T02:50:07.417Z,56.70
2018-07-27T02:52:36.846Z,57.00
2018-07-27T02:55:06.885Z,56.90
2018-07-27T02:57:36.630Z,56.80
2018-07-27T03:00:07.061Z,57.30
2018-07-27T03:02:36.505Z,57.20
2018-07-27T03:05:06.946Z,57.30
2018-07-27T03:07:36.674Z,57.00
2018-07-27T03:10:06.878Z,57.10
2018-07-27T03:12:36.431Z,57.10
2018-07-27T03:15:06.987Z,57.10
2018-07-27T03:17:36.418Z,57.10
2018-07-27T03:20:06.997Z,57.30
2018-07-27T03:22:36.578Z,57.40
2018-07-27T03:25:06.618Z,57.60
2018-07-27T03:27:36.116Z,57.60
2018-07-27T03:30:06.561Z,57.60
2018-07-27T03:32:36.093Z,57.60
2018-07-27T03:35:05.664Z,57.60
2018-07-27T03:37:35.129Z,57.60
2018-07-27T03:40:05.601Z,57.60
2018-07-27T03:42:35.238Z,57.80
2018-07-27T03:45:04.883Z,57.60
2018-07-27T03:47:34.477Z,57.50
2018-07-27T03:50:04.148Z,57.60
2018-07-27T03:52:33.604Z,57.60
2018-07-27T03:55:03.141Z,57.50
2018-07-27T03:57:32.604Z,57.60
2018-07-27T04:00:02.031Z,58.70
2018-07-27T04:02:31.810Z,58.50
2018-07-27T04:05:01.271Z,58.30
2018-07-27T04:07:30.801Z,58.30
2018-07-27T04:10:00.295Z,58.20
2018-07-27T04:12:29.918Z,58.30
2018-07-27T04:14:59.375Z,58.20
2018-07-27T04:17:28.789Z,58.30
2018-07-27T04:19:58.228Z,58.30
2018-07-27T04:22:27.723Z,58.30
2018-07-27T04:25:05.418Z,58.40
2018-07-27T04:30:35.286Z,58.40
2018-07-27T04:33:04.731Z,59.80
2018-07-27T04:35:34.267Z,59.60
2018-07-27T04:38:03.709Z,59.50
2018-07-27T04:41:03.093Z,59.20
2018-07-27T04:43:32.671Z,59.20
2018-07-27T04:46:02.373Z,59.10
2018-07-27T04:48:31.816Z,59.30
2018-07-27T04:51:01.259Z,59.20
2018-07-27T04:53:31.009Z,59.30
2018-07-27T04:56:05.881Z,59.50
2018-07-27T04:59:04.867Z,59.70
2018-07-27T05:01:34.404Z,59.70
2018-07-27T05:04:07.127Z,59.70
2018-07-27T05:06:36.658Z,60.10
2018-07-27T05:09:13.450Z,60.00
2018-07-27T05:11:43.331Z,60.20
2018-07-27T05:14:12.894Z,60.20
2018-07-27T05:16:42.445Z,60.10
2018-07-27T05:19:12.263Z,60.10
2018-07-27T05:21:41.964Z,60.10
2018-07-27T05:26:54.306Z,60.30
2018-07-27T05:29:43.057Z,60.10
2018-07-27T05:32:12.763Z,60.40
2018-07-27T05:37:41.828Z,59.80
2018-07-27T05:40:11.465Z,59.40
2018-07-27T05:45:41.028Z,59.00
2018-07-27T05:48:10.506Z,59.20
2018-07-27T05:51:04.050Z,59.10
2018-07-27T05:53:33.907Z,59.20
2018-07-27T05:56:45.653Z,59.40
2018-07-27T05:59:15.432Z,59.00
2018-07-27T06:01:44.898Z,59.00
2018-07-27T06:04:14.352Z,59.10
2018-07-27T06:06:43.982Z,59.10
2018-07-27T06:09:13.472Z,58.90
2018-07-27T06:12:03.387Z,58.90
2018-07-27T06:14:32.998Z,59.10
2018-07-27T06:17:02.572Z,58.70
2018-07-27T06:19:40.239Z,58.90
2018-07-27T06:22:09.878Z,58.90
2018-07-27T06:24:49.936Z,59.00
2018-07-27T06:27:20.237Z,59.10
2018-07-27T06:32:50.351Z,58.30
2018-07-27T06:35:20.240Z,58.00
2018-07-27T06:37:50.086Z,58.50
2018-07-27T06:40:25.829Z,58.20
2018-07-27T06:43:05.077Z,58.10
2018-07-27T06:45:34.830Z,57.80
2018-07-27T06:48:05.254Z,58.40
2018-07-27T06:50:38.300Z,58.40
2018-07-27T06:56:10.320Z,57.90
2018-07-27T06:58:39.883Z,57.50
2018-07-27T07:01:16.496Z,58.30
2018-07-27T07:03:46.075Z,57.80
2018-07-27T07:06:39.357Z,57.20
2018-07-27T07:09:10.617Z,57.20
2018-07-27T07:11:40.249Z,57.70
2018-07-27T07:14:10.219Z,57.00
2018-07-27T07:16:39.741Z,56.80
2018-07-27T07:19:09.919Z,56.80
2018-07-27T07:21:39.429Z,56.60
2018-07-27T07:24:09.030Z,55.80
2018-07-27T07:26:38.606Z,55.70
2018-07-27T07:29:08.149Z,56.20
2018-07-27T07:31:37.615Z,55.70
2018-07-27T07:34:07.119Z,56.40
2018-07-27T07:36:36.594Z,55.20
2018-07-27T07:39:09.986Z,55.20
2018-07-27T07:41:39.447Z,55.70
2018-07-27T07:44:09.442Z,56.20
2018-07-27T07:46:39.663Z,55.70
2018-07-27T07:49:09.228Z,55.60
2018-07-27T07:51:38.932Z,55.60
2018-07-27T07:54:08.530Z,56.00
2018-07-27T07:56:38.013Z,56.30
2018-07-27T07:59:07.508Z,56.30
2018-07-27T08:01:37.030Z,56.10
2018-07-27T08:04:06.557Z,55.80
2018-07-27T08:06:36.060Z,55.60
2018-07-27T08:09:09.031Z,55.40
2018-07-27T08:11:38.505Z,55.10
2018-07-27T08:14:08.020Z,54.60
2018-07-27T08:16:37.543Z,55.40
2018-07-27T08:19:07.141Z,55.10
2018-07-27T08:21:36.717Z,54.50
2018-07-27T08:24:06.209Z,54.90
2018-07-27T08:26:41.850Z,54.30
2018-07-27T08:29:12.234Z,53.80
2018-07-27T08:31:42.801Z,54.10
2018-07-27T08:34:12.973Z,54.70
2018-07-27T08:36:42.564Z,55.20
2018-07-27T08:39:15.203Z,54.70
2018-07-27T08:41:44.839Z,54.40
2018-07-27T08:44:15.697Z,54.80
2018-07-27T08:46:45.181Z,53.80
2018-07-27T08:49:14.711Z,53.70
2018-07-27T08:51:44.107Z,53.50
2018-07-27T08:54:13.589Z,53.40
2018-07-27T08:56:43.072Z,52.90
2018-07-27T08:59:12.577Z,53.00
2018-07-27T09:01:42.061Z,53.10
2018-07-27T09:04:11.600Z,52.80
2018-07-27T09:06:41.073Z,53.40
2018-07-27T09:09:13.640Z,52.50
2018-07-27T09:11:43.098Z,50.20
2018-07-27T09:14:12.544Z,52.80
2018-07-27T09:16:42.038Z,52.10
2018-07-27T09:19:11.657Z,52.70
2018-07-27T09:21:43.232Z,51.90
2018-07-27T09:24:12.833Z,52.10
2018-07-27T09:26:42.314Z,51.60
2018-07-27T09:29:11.771Z,51.60
2018-07-27T09:31:41.249Z,51.40
2018-07-27T09:34:10.824Z,51.10
2018-07-27T09:36:40.341Z,50.70
2018-07-27T09:39:11.146Z,50.60
2018-07-27T09:41:40.629Z,50.70
2018-07-27T09:44:10.383Z,50.90
2018-07-27T09:46:39.991Z,52.80
2018-07-27T09:49:09.456Z,51.30
2018-07-27T09:51:38.993Z,50.70
2018-07-27T09:54:08.495Z,51.00
2018-07-27T09:56:38.015Z,52.30
2018-07-27T09:59:07.485Z,52.90
2018-07-27T10:01:37.100Z,51.50
2018-07-27T10:04:06.708Z,51.50
2018-07-27T10:06:36.313Z,50.70
2018-07-27T10:09:08.933Z,51.20
2018-07-27T10:11:38.622Z,50.80
2018-07-27T10:14:08.133Z,52.10
2018-07-27T10:16:37.729Z,52.50
2018-07-27T10:19:07.317Z,51.60
2018-07-27T10:21:36.934Z,52.20
2018-07-27T10:24:06.621Z,52.30
2018-07-27T10:26:36.052Z,53.00
2018-07-27T10:29:05.530Z,50.70
2018-07-27T10:31:35.039Z,51.70
2018-07-27T10:34:04.533Z,52.20
2018-07-27T10:36:34.030Z,50.90
2018-07-27T10:39:03.746Z,50.00
2018-07-27T10:41:33.293Z,49.60
2018-07-27T10:44:03.076Z,50.20
2018-07-27T10:46:32.831Z,50.50
2018-07-27T10:49:02.436Z,49.10
2018-07-27T10:51:32.217Z,49.40
2018-07-27T10:54:02.108Z,50.30
2018-07-27T10:56:31.740Z,49.20
2018-07-27T10:59:01.205Z,48.30
2018-07-27T11:01:30.954Z,48.50
2018-07-27T11:04:00.630Z,50.00
2018-07-27T11:06:30.312Z,47.40
2018-07-27T11:08:59.990Z,49.70
2018-07-27T11:11:29.618Z,51.10
2018-07-27T11:13:59.084Z,50.30
2018-07-27T11:16:28.605Z,50.40
2018-07-27T11:18:58.508Z,50.70
2018-07-27T11:21:27.975Z,51.10
2018-07-27T11:23:57.787Z,50.80
2018-07-27T11:26:27.380Z,51.30
2018-07-27T11:28:57.134Z,50.10
2018-07-27T11:31:26.737Z,51.40
2018-07-27T11:33:56.772Z,49.80
2018-07-27T11:36:26.518Z,50.10
2018-07-27T11:38:56.128Z,47.90
2018-07-27T11:41:25.608Z,49.10
2018-07-27T11:43:55.407Z,50.10
2018-07-27T11:46:25.215Z,49.50
2018-07-27T11:48:55.452Z,49.20
2018-07-27T11:51:24.910Z,49.40
2018-07-27T11:53:54.457Z,51.00
2018-07-27T11:56:24.079Z,51.30
2018-07-27T11:58:53.989Z,50.80
2018-07-27T12:01:23.624Z,49.20
2018-07-27T12:03:53.374Z,48.50
2018-07-27T12:06:22.877Z,48.10
2018-07-27T12:08:52.699Z,49.30
2018-07-27T12:11:22.246Z,48.20
2018-07-27T12:13:52.008Z,50.30
2018-07-27T12:16:22.138Z,47.80
2018-07-27T12:18:51.623Z,47.40
2018-07-27T12:21:38.569Z,48.00
2018-07-27T12:24:07.846Z,47.30
2018-07-27T12:26:42.109Z,47.80
2018-07-27T12:29:11.911Z,47.10
2018-07-27T12:31:42.055Z,49.20
2018-07-27T12:34:11.730Z,47.40
2018-07-27T12:36:41.401Z,47.40
2018-07-27T12:39:12.129Z,49.40
2018-07-27T12:41:42.234Z,48.00
2018-07-27T12:44:12.230Z,47.20
2018-07-27T12:46:41.993Z,46.70
2018-07-27T12:49:11.523Z,46.40
2018-07-27T12:51:41.110Z,46.10
2018-07-27T12:54:11.085Z,46.10
2018-07-27T12:56:40.573Z,45.50
2018-07-27T12:59:11.320Z,45.40
2018-07-27T13:01:41.513Z,44.40
2018-07-27T13:04:11.373Z,45.00
2018-07-27T13:06:41.028Z,45.40
2018-07-27T13:09:12.677Z,45.30
2018-07-27T13:11:42.448Z,45.20
2018-07-27T13:14:12.999Z,45.00
2018-07-27T13:16:42.659Z,45.20
2018-07-27T13:19:14.560Z,46.10
2018-07-27T13:21:44.386Z,47.70
2018-07-27T13:24:13.936Z,47.20
2018-07-27T13:26:43.625Z,47.70
2018-07-27T13:29:13.414Z,48.20
2018-07-27T13:31:49.154Z,47.10
2018-07-27T13:34:39.130Z,46.90
2018-07-27T13:37:09.048Z,46.80
2018-07-27T13:39:39.641Z,47.60
2018-07-27T13:42:11.182Z,47.90
2018-07-27T13:44:41.386Z,48.60
2018-07-27T13:47:11.654Z,49.20
2018-07-27T13:49:41.224Z,48.60
2018-07-27T13:52:11.672Z,49.20
2018-07-27T13:54:41.497Z,48.30
2018-07-27T13:57:11.147Z,48.00
2018-07-27T13:59:41.397Z,47.20
2018-07-27T14:02:11.211Z,47.40
2018-07-27T14:04:40.720Z,46.70
2018-07-27T14:07:11.293Z,46.40
2018-07-27T14:09:40.992Z,46.70
2018-07-27T14:12:11.423Z,46.30
2018-07-27T14:14:40.918Z,46.60
2018-07-27T14:17:10.369Z,48.70
2018-07-27T14:19:40.046Z,49.20
2018-07-27T14:22:09.840Z,47.70
2018-07-27T14:24:39.328Z,48.80
2018-07-27T14:27:08.927Z,49.30
2018-07-27T14:29:38.457Z,48.70
2018-07-27T14:32:08.000Z,47.40
2018-07-27T14:34:37.538Z,46.90
2018-07-27T14:37:07.081Z,46.60
2018-07-27T14:39:36.681Z,46.00
2018-07-27T14:42:06.182Z,45.40
2018-07-27T14:44:35.848Z,46.10
2018-07-27T14:47:05.340Z,47.60
2018-07-27T14:49:34.868Z,46.80
2018-07-27T14:52:04.386Z,47.60
2018-07-27T14:54:34.173Z,47.20
2018-07-27T14:57:03.746Z,47.40
2018-07-27T14:59:33.297Z,47.30
2018-07-27T15:02:03.049Z,46.80
2018-07-27T15:04:32.624Z,48.00
2018-07-27T15:07:02.201Z,47.30
2018-07-27T15:09:32.158Z,47.60
2018-07-27T15:12:01.758Z,48.20
2018-07-27T15:14:31.513Z,51.20
2018-07-27T15:17:01.058Z,50.50
2018-07-27T15:19:30.586Z,50.70
2018-07-27T15:22:00.226Z,51.30
2018-07-27T15:24:29.843Z,51.50
2018-07-27T15:27:01.461Z,51.30
2018-07-27T15:29:31.014Z,51.40
2018-07-27T15:32:00.614Z,51.60
2018-07-27T15:34:30.146Z,51.60
2018-07-27T15:37:00.627Z,51.00
2018-07-27T15:39:30.121Z,50.50
2018-07-27T15:42:01.879Z,50.20
2018-07-27T15:44:32.833Z,49.60
2018-07-27T15:47:02.283Z,49.10
2018-07-27T15:49:31.794Z,48.70
2018-07-27T15:52:01.417Z,48.20
2018-07-27T15:54:41.779Z,48.40
2018-07-27T15:57:11.313Z,47.20
2018-07-27T15:59:40.793Z,47.50
2018-07-27T16:02:10.251Z,47.70
2018-07-27T16:04:39.812Z,47.60
2018-07-27T16:07:09.699Z,49.00
2018-07-27T16:09:39.256Z,47.60
2018-07-27T16:12:10.511Z,48.50
2018-07-27T16:14:41.011Z,49.50
2018-07-27T16:17:10.987Z,48.20
2018-07-27T16:19:40.592Z,46.90
2018-07-27T16:22:11.172Z,46.70
2018-07-27T16:24:40.721Z,46.60
2018-07-27T16:27:10.324Z,46.60
2018-07-27T16:29:40.535Z,46.40
2018-07-27T16:32:10.635Z,45.90
2018-07-27T16:34:40.327Z,47.20
2018-07-27T16:43:12.692Z,49.10
2018-07-27T16:45:42.497Z,49.30
2018-07-27T16:48:12.125Z,47.10
2018-07-27T16:50:41.716Z,48.80
2018-07-27T16:53:11.742Z,47.30
2018-07-27T16:55:41.351Z,47.40
2018-07-27T16:58:11.140Z,47.40
2018-07-27T17:00:40.736Z,49.00
2018-07-27T17:03:10.279Z,49.50
2018-07-27T17:05:39.805Z,49.60
2018-07-27T17:08:09.600Z,49.80
2018-07-27T17:10:39.463Z,49.40
2018-07-27T17:13:09.044Z,48.70
2018-07-27T17:15:38.690Z,48.60
2018-07-27T17:18:08.234Z,47.60
2018-07-27T17:20:37.803Z,47.40
2018-07-27T17:23:07.428Z,49.20
2018-07-27T17:25:37.156Z,48.70
2018-07-27T17:28:06.844Z,47.70
2018-07-27T17:30:36.349Z,47.70
2018-07-27T17:33:05.931Z,48.00
2018-07-27T17:35:35.512Z,46.70
2018-07-27T17:38:04.994Z,46.20
2018-07-27T17:40:34.610Z,45.80
2018-07-27T17:43:04.152Z,45.30
2018-07-27T17:45:33.653Z,45.20
2018-07-27T17:48:03.334Z,46.00
2018-07-27T17:50:33.180Z,45.50
2018-07-27T17:53:02.971Z,45.40
2018-07-27T17:55:32.572Z,45.30
2018-07-27T17:58:02.598Z,45.00
2018-07-27T18:00:32.319Z,45.80
2018-07-27T18:03:02.199Z,45.70
2018-07-27T18:05:32.250Z,45.60
2018-07-27T18:08:02.048Z,45.70
2018-07-27T18:10:33.685Z,45.10
2018-07-27T18:13:03.324Z,45.00
2018-07-27T18:15:32.793Z,44.80
2018-07-27T18:18:02.289Z,44.60
2018-07-27T18:20:37.444Z,45.00
2018-07-27T18:23:07.366Z,46.10
2018-07-27T18:25:36.924Z,46.80
2018-07-27T18:28:06.349Z,47.20
2018-07-27T18:30:36.844Z,47.70
2018-07-27T18:36:00.519Z,48.50
2018-07-27T18:38:40.070Z,48.60
2018-07-27T18:41:09.961Z,48.30
2018-07-27T18:43:40.365Z,48.20
2018-07-27T18:46:11.492Z,48.50
2018-07-27T18:48:41.854Z,50.60
2018-07-27T18:51:11.611Z,50.50
2018-07-27T18:53:41.311Z,49.90
2018-07-27T18:56:11.385Z,49.40
2018-07-27T18:58:43.540Z,48.70
2018-07-27T19:04:01.018Z,47.70
2018-07-27T19:06:50.532Z,47.60
2018-07-27T19:09:20.154Z,47.70
2018-07-27T19:11:49.766Z,47.70
2018-07-27T19:14:19.283Z,47.30
2018-07-27T19:16:49.179Z,47.00
2018-07-27T19:19:19.730Z,47.00
2018-07-27T19:21:49.314Z,46.70
2018-07-27T19:24:18.815Z,46.80
2018-07-27T19:26:48.489Z,46.70
2018-07-27T19:29:18.197Z,47.20
2018-07-27T19:31:47.888Z,47.40
2018-07-27T19:34:17.422Z,47.60
2018-07-27T19:36:47.092Z,48.10
2018-07-27T19:39:16.632Z,47.90
2018-07-27T19:41:46.117Z,47.70
2018-07-27T19:44:15.694Z,47.80
2018-07-27T19:46:45.295Z,47.90
2018-07-27T19:49:16.276Z,48.10
2018-07-27T19:51:45.812Z,48.30
2018-07-27T19:54:16.137Z,49.20
2018-07-27T19:56:46.750Z,49.10
2018-07-27T19:59:16.286Z,49.00
2018-07-27T20:01:46.442Z,48.80
2018-07-27T20:04:15.957Z,49.90
2018-07-27T20:06:45.329Z,49.00
2018-07-27T20:09:18.160Z,49.40
2018-07-27T20:11:47.647Z,48.90
2018-07-27T20:14:17.153Z,49.20
2018-07-27T20:16:46.591Z,49.10
2018-07-27T20:19:16.826Z,49.50
2018-07-27T20:21:46.460Z,49.90
2018-07-27T20:24:15.970Z,49.90
2018-07-27T20:29:40.323Z,49.00
2018-07-27T20:32:10.012Z,48.90
2018-07-27T20:34:39.653Z,49.90
2018-07-27T20:37:09.079Z,50.60
2018-07-27T20:39:38.548Z,50.20
2018-07-27T20:42:08.039Z,49.60
2018-07-27T20:44:37.480Z,49.70
2018-07-27T20:47:06.938Z,49.70
2018-07-27T20:49:36.373Z,50.20
2018-07-27T20:52:05.772Z,50.20
2018-07-27T20:54:35.165Z,49.30
2018-07-27T20:57:04.642Z,49.20
2018-07-27T20:59:34.094Z,50.00
2018-07-27T21:02:03.491Z,49.90
2018-07-27T21:04:32.965Z,49.60
2018-07-27T21:07:02.541Z,50.00
2018-07-27T21:09:31.987Z,49.90
2018-07-27T21:12:01.477Z,50.60
2018-07-27T21:14:30.898Z,51.10
2018-07-27T21:17:00.377Z,50.00
2018-07-27T21:19:29.825Z,50.10
2018-07-27T21:21:59.340Z,50.90
2018-07-27T21:24:28.682Z,50.40
2018-07-27T21:26:58.110Z,50.60
2018-07-27T21:29:27.525Z,51.30
2018-07-27T21:31:56.952Z,51.20
2018-07-27T21:34:26.404Z,51.00
2018-07-27T21:36:55.826Z,50.10
2018-07-27T21:39:41.864Z,49.90
2018-07-27T21:42:14.696Z,50.60
2018-07-27T21:44:44.364Z,50.60
2018-07-27T21:47:13.815Z,50.20
2018-07-27T21:49:43.219Z,50.60
2018-07-27T21:52:12.647Z,50.70
2018-07-27T21:54:42.107Z,50.80
2018-07-27T21:57:11.666Z,49.90
2018-07-27T21:59:41.204Z,49.80
2018-07-27T22:02:10.656Z,50.20
2018-07-27T22:04:40.082Z,50.60
2018-07-27T22:07:09.459Z,49.90
2018-07-27T22:09:38.907Z,50.40
2018-07-27T22:12:25.824Z,50.70
2018-07-27T22:15:19.960Z,49.80
2018-07-27T22:18:12.712Z,50.00
2018-07-27T22:20:42.249Z,50.20
2018-07-27T22:23:11.701Z,50.40
2018-07-27T22:25:41.119Z,50.10
2018-07-27T22:28:10.516Z,50.60
2018-07-27T22:30:39.956Z,50.80
2018-07-27T22:33:09.341Z,50.30
2018-07-27T22:35:38.876Z,50.50
2018-07-27T22:38:08.280Z,50.30
2018-07-27T22:40:37.704Z,50.20
2018-07-27T22:43:07.124Z,50.00
2018-07-27T22:45:36.552Z,50.50
2018-07-27T22:48:06.141Z,50.00
2018-07-27T22:50:35.580Z,49.50
2018-07-27T22:53:04.952Z,49.90
2018-07-27T22:55:34.379Z,49.50
2018-07-27T22:58:03.803Z,49.50
2018-07-27T23:00:33.306Z,49.60
2018-07-27T23:03:02.698Z,50.00
2018-07-27T23:05:32.200Z,50.20
2018-07-27T23:08:01.641Z,50.00
2018-07-27T23:10:31.160Z,50.60
2018-07-27T23:13:00.531Z,49.90
2018-07-27T23:15:29.962Z,50.40
2018-07-27T23:17:59.396Z,50.40
2018-07-27T23:20:28.787Z,50.30
2018-07-27T23:22:58.251Z,50.10
2018-07-27T23:25:27.616Z,51.00
2018-07-27T23:27:57.086Z,51.20
2018-07-27T23:30:26.503Z,51.30
2018-07-27T23:32:55.889Z,51.20
2018-07-27T23:35:25.270Z,50.90
2018-07-27T23:37:54.653Z,50.80
2018-07-27T23:40:24.037Z,51.30
2018-07-27T23:42:53.472Z,51.30
2018-07-27T23:45:22.937Z,51.50
2018-07-27T23:47:52.329Z,51.40
2018-07-27T23:50:21.743Z,53.10
2018-07-27T23:52:51.150Z,52.90
2018-07-27T23:55:20.586Z,52.70
2018-07-27T23:57:50.000Z,53.00
